createdAt,value
2019-02-07T00:02:00.596Z,-3.05
2019-02-07T00:05:05.253Z,-3.03
2019-02-07T00:08:07.340Z,-3.06
2019-02-07T00:11:10.019Z,-3.13
2019-02-07T00:14:11.934Z,-3.10
2019-02-07T00:17:13.923Z,-3.08
2019-02-07T00:20:17.945Z,-3.01
2019-02-07T00:23:19.900Z,-3.00
2019-02-07T00:26:21.836Z,-3.09
2019-02-07T00:29:23.731Z,-3.18
2019-02-07T00:32:25.697Z,-3.18
2019-02-07T00:35:27.561Z,-3.22
2019-02-07T00:38:29.493Z,-3.30
2019-02-07T00:41:31.394Z,-3.24
2019-02-07T00:44:33.282Z,-3.22
2019-02-07T00:47:35.237Z,-3.32
2019-02-07T00:50:37.153Z,-3.34
2019-02-07T00:53:39.492Z,-3.25
2019-02-07T00:56:42.642Z,-3.24
2019-02-07T00:59:44.573Z,-3.16
2019-02-07T01:02:46.807Z,-3.13
2019-02-07T01:05:48.700Z,-3.10
2019-02-07T01:08:50.750Z,-3.09
2019-02-07T01:11:53.700Z,-3.09
2019-02-07T01:15:01.992Z,-3.10
2019-02-07T01:17:59.738Z,-3.09
2019-02-07T01:21:01.670Z,-3.05
2019-02-07T01:24:03.610Z,-3.09
2019-02-07T01:27:05.574Z,-3.09
2019-02-07T01:30:11.001Z,-3.10
2019-02-07T01:33:12.942Z,-3.15
2019-02-07T01:36:14.933Z,-3.19
2019-02-07T01:39:16.977Z,-3.14
2019-02-07T01:42:18.938Z,-3.14
2019-02-07T01:45:22.940Z,-3.17
2019-02-07T01:48:24.822Z,-3.20
2019-02-07T01:51:26.881Z,-3.24
2019-02-07T01:54:29.506Z,-3.24
2019-02-07T01:57:31.427Z,-3.22
2019-02-07T02:00:33.281Z,-3.28
2019-02-07T02:03:35.441Z,-3.37
2019-02-07T02:06:37.390Z,-3.29
2019-02-07T02:09:39.401Z,-3.30
2019-02-07T02:12:41.301Z,-3.32
2019-02-07T02:15:44.030Z,-3.44
2019-02-07T02:18:46.060Z,-3.44
2019-02-07T02:21:48.053Z,-3.49
2019-02-07T02:24:50.054Z,-3.56
2019-02-07T02:27:52.569Z,-3.56
2019-02-07T02:30:55.654Z,-3.56
2019-02-07T02:33:57.567Z,-3.57
2019-02-07T02:36:59.517Z,-3.61
2019-02-07T02:40:02.006Z,-3.78
2019-02-07T02:43:04.980Z,-3.78
2019-02-07T02:46:06.947Z,-3.80
2019-02-07T02:49:08.926Z,-3.88
2019-02-07T02:52:10.862Z,-3.86
2019-02-07T02:55:17.713Z,-3.82
2019-02-07T02:58:19.675Z,-3.78
2019-02-07T03:01:26.483Z,-3.75
2019-02-07T03:04:30.219Z,-3.77
2019-02-07T03:07:36.892Z,-3.77
2019-02-07T03:10:58.589Z,-3.75
2019-02-07T03:14:08.151Z,-3.75
2019-02-07T03:17:27.011Z,-3.79
2019-02-07T03:20:40.050Z,-3.76
2019-02-07T03:23:46.371Z,-3.80
2019-02-07T03:27:02.203Z,-3.80
2019-02-07T03:30:15.416Z,-3.79
2019-02-07T03:33:31.698Z,-3.79
2019-02-07T03:36:35.456Z,-3.78
2019-02-07T03:39:44.938Z,-3.81
2019-02-07T03:42:54.765Z,-3.87
2019-02-07T03:46:02.798Z,-3.91
2019-02-07T03:49:04.609Z,-3.96
2019-02-07T03:52:25.230Z,-4.01
2019-02-07T03:55:28.990Z,-4.20
2019-02-07T03:58:32.899Z,-4.35
2019-02-07T04:01:53.499Z,-4.43
2019-02-07T04:04:57.194Z,-4.27
2019-02-07T04:08:06.540Z,-4.30
2019-02-07T04:11:25.633Z,-4.25
2019-02-07T04:14:45.910Z,-4.21
2019-02-07T04:17:49.653Z,-4.18
2019-02-07T04:21:08.823Z,-4.18
2019-02-07T04:24:21.663Z,-4.17
2019-02-07T04:27:37.423Z,-4.13
2019-02-07T04:30:41.911Z,-4.05
2019-02-07T04:34:02.276Z,-3.99
2019-02-07T04:37:06.015Z,-3.97
2019-02-07T04:40:20.296Z,-4.05
2019-02-07T04:43:40.687Z,-4.06
2019-02-07T04:46:56.954Z,-4.06
2019-02-07T04:50:09.544Z,-4.00
2019-02-07T04:53:19.303Z,-4.06
2019-02-07T04:56:39.977Z,-4.07
2019-02-07T04:59:52.496Z,-4.17
2019-02-07T05:02:56.339Z,-4.13
2019-02-07T05:06:02.993Z,-4.09
2019-02-07T05:09:17.019Z,-4.04
2019-02-07T05:12:20.869Z,-4.00
2019-02-07T05:15:43.294Z,-4.04
2019-02-07T05:18:59.083Z,-4.08
2019-02-07T05:22:12.027Z,-4.25
2019-02-07T05:25:18.854Z,-4.25
2019-02-07T05:28:39.514Z,-4.21
2019-02-07T05:32:01.842Z,-4.18
2019-02-07T05:35:25.734Z,-4.24
2019-02-07T05:38:38.787Z,-4.20
2019-02-07T05:41:45.492Z,-4.16
2019-02-07T05:45:06.240Z,-4.22
2019-02-07T05:48:25.430Z,-4.05
2019-02-07T05:51:29.199Z,-4.01
2019-02-07T05:54:49.754Z,-4.02
2019-02-07T05:58:02.180Z,-3.97
2019-02-07T06:01:22.508Z,-4.01
2019-02-07T06:04:28.817Z,-3.97
2019-02-07T06:07:35.669Z,-3.93
2019-02-07T06:10:58.117Z,-3.93
2019-02-07T06:17:23.125Z,-3.76
2019-02-07T06:20:29.700Z,-3.70
2019-02-07T06:23:42.746Z,-3.60
2019-02-07T06:26:49.901Z,-3.60
2019-02-07T06:29:56.871Z,-3.55
2019-02-07T06:33:00.581Z,-3.29
2019-02-07T06:36:07.309Z,-3.12
2019-02-07T06:39:28.453Z,-2.84
2019-02-07T06:42:37.659Z,-2.63
2019-02-07T06:45:41.459Z,-2.56
2019-02-07T06:49:01.722Z,-2.32
2019-02-07T06:52:11.602Z,-1.87
2019-02-07T06:55:24.158Z,-1.02
2019-02-07T06:58:27.905Z,0.10
2019-02-07T07:01:31.592Z,1.64
2019-02-07T07:04:35.792Z,2.55
2019-02-07T07:07:54.564Z,2.68
2019-02-07T07:11:01.041Z,2.80
2019-02-07T07:14:14.245Z,2.46
2019-02-07T07:17:25.763Z,1.25
2019-02-07T07:20:29.866Z,0.52
2019-02-07T07:23:33.794Z,0.02
2019-02-07T07:26:43.840Z,-0.34
2019-02-07T07:29:56.738Z,-0.58
2019-02-07T07:33:06.299Z,-0.42
2019-02-07T07:36:21.924Z,-0.21
2019-02-07T07:39:31.322Z,-0.02
2019-02-07T07:42:35.109Z,0.30
2019-02-07T07:45:38.773Z,0.56
2019-02-07T07:48:42.502Z,0.54
2019-02-07T07:51:46.276Z,0.37
2019-02-07T07:55:05.429Z,0.09
2019-02-07T07:58:09.117Z,0.44
2019-02-07T08:01:29.335Z,0.91
2019-02-07T08:04:39.079Z,0.96
2019-02-07T08:07:57.628Z,0.92
2019-02-07T08:11:13.618Z,1.34
2019-02-07T08:14:20.478Z,2.01
2019-02-07T08:17:47.503Z,3.14
2019-02-07T08:20:51.061Z,4.29
2019-02-07T08:24:04.224Z,5.38
2019-02-07T08:27:14.359Z,6.56
2019-02-07T08:30:24.044Z,7.21
2019-02-07T08:33:39.328Z,7.46
2019-02-07T08:37:00.151Z,7.81
2019-02-07T08:40:11.842Z,7.90
2019-02-07T08:43:30.643Z,7.45
2019-02-07T08:46:53.472Z,7.20
2019-02-07T08:49:57.382Z,7.99
2019-02-07T08:53:01.112Z,8.70
2019-02-07T08:56:10.342Z,8.81
2019-02-07T08:59:17.131Z,7.21
2019-02-07T09:02:35.737Z,5.75
2019-02-07T09:05:39.534Z,4.85
2019-02-07T09:08:49.615Z,4.10
2019-02-07T09:11:59.171Z,3.73
2019-02-07T09:15:20.939Z,3.46
2019-02-07T09:18:24.718Z,3.06
2019-02-07T09:21:45.154Z,2.81
2019-02-07T09:25:06.219Z,2.79
2019-02-07T09:28:12.695Z,2.99
2019-02-07T09:31:19.610Z,3.24
2019-02-07T09:34:23.260Z,3.49
2019-02-07T09:37:33.178Z,3.83
2019-02-07T09:40:36.900Z,3.98
2019-02-07T09:43:40.678Z,3.74
2019-02-07T09:46:47.365Z,3.36
2019-02-07T09:49:51.097Z,3.47
2019-02-07T09:52:57.356Z,3.42
2019-02-07T09:56:01.038Z,3.13
2019-02-07T09:59:05.400Z,2.90
2019-02-07T10:02:09.093Z,2.79
2019-02-07T10:05:28.907Z,2.67
2019-02-07T10:08:38.884Z,2.70
2019-02-07T10:11:57.912Z,2.76
2019-02-07T10:15:01.976Z,2.89
2019-02-07T10:18:13.254Z,3.03
2019-02-07T10:21:19.488Z,3.22
2019-02-07T10:24:26.196Z,3.29
2019-02-07T10:27:44.920Z,3.14
2019-02-07T10:31:03.642Z,3.09
2019-02-07T10:34:07.652Z,2.98
2019-02-07T10:37:23.738Z,2.84
2019-02-07T10:40:28.758Z,2.96
2019-02-07T10:43:35.432Z,2.94
2019-02-07T10:46:54.231Z,3.11
2019-02-07T10:50:00.942Z,3.04
2019-02-07T10:53:04.756Z,2.95
2019-02-07T10:56:11.216Z,2.99
2019-02-07T10:59:32.798Z,3.03
2019-02-07T11:02:36.580Z,2.96
2019-02-07T11:05:40.456Z,2.89
2019-02-07T11:08:44.172Z,2.93
2019-02-07T11:11:53.579Z,2.96
2019-02-07T11:15:03.378Z,3.02
2019-02-07T11:18:12.498Z,3.24
2019-02-07T11:21:20.297Z,3.27
2019-02-07T11:24:27.076Z,3.25
2019-02-07T11:27:30.955Z,3.29
2019-02-07T11:30:49.894Z,3.25
2019-02-07T11:33:53.637Z,3.24
2019-02-07T11:37:06.182Z,3.29
2019-02-07T11:40:12.702Z,3.36
2019-02-07T11:43:19.867Z,3.44
2019-02-07T11:46:37.171Z,3.65
2019-02-07T11:49:35.113Z,3.68
2019-02-07T11:52:40.217Z,3.69
2019-02-07T11:55:50.020Z,3.74
2019-02-07T11:59:10.556Z,3.79
2019-02-07T12:02:31.226Z,3.82
2019-02-07T12:05:34.975Z,4.06
2019-02-07T12:08:54.071Z,4.44
2019-02-07T12:12:03.947Z,4.81
2019-02-07T12:15:22.791Z,4.91
2019-02-07T12:18:29.315Z,5.11
2019-02-07T12:21:45.075Z,4.99
2019-02-07T12:24:48.889Z,4.80
2019-02-07T12:27:55.802Z,4.61
2019-02-07T12:31:08.900Z,4.82
2019-02-07T12:34:13.875Z,5.03
2019-02-07T12:37:18.970Z,5.32
2019-02-07T12:40:28.613Z,5.43
2019-02-07T12:43:44.675Z,5.42
2019-02-07T12:46:54.345Z,5.39
2019-02-07T12:50:04.633Z,5.28
2019-02-07T12:53:08.516Z,5.32
2019-02-07T12:56:28.757Z,5.30
2019-02-07T12:59:36.036Z,5.30
2019-02-07T13:02:42.523Z,5.40
2019-02-07T13:05:52.257Z,5.56
2019-02-07T13:09:01.597Z,5.60
2019-02-07T13:12:09.402Z,5.82
2019-02-07T13:15:16.243Z,6.16
2019-02-07T13:18:20.232Z,6.43
2019-02-07T13:21:23.938Z,6.84
2019-02-07T13:24:33.971Z,7.03
2019-02-07T13:27:44.996Z,7.05
2019-02-07T13:30:48.940Z,6.80
2019-02-07T13:34:09.554Z,6.62
2019-02-07T13:37:28.309Z,6.53
2019-02-07T13:40:47.014Z,6.44
2019-02-07T13:44:05.873Z,6.33
2019-02-07T13:47:13.025Z,6.12
2019-02-07T13:50:19.643Z,6.08
2019-02-07T13:53:23.404Z,6.12
2019-02-07T13:56:39.248Z,6.01
2019-02-07T13:59:55.594Z,5.95
2019-02-07T14:03:17.834Z,5.71
2019-02-07T14:06:21.564Z,5.47
2019-02-07T14:09:31.244Z,5.23
2019-02-07T14:12:40.742Z,5.06
2019-02-07T14:15:53.975Z,4.98
2019-02-07T14:18:57.679Z,4.82
2019-02-07T14:22:04.120Z,4.74
2019-02-07T14:25:12.995Z,4.66
2019-02-07T14:28:31.739Z,4.56
2019-02-07T14:31:35.500Z,4.49
2019-02-07T14:34:39.288Z,4.27
2019-02-07T14:37:59.555Z,4.15
2019-02-07T14:41:20.132Z,4.04
2019-02-07T14:44:29.757Z,3.90
2019-02-07T14:47:31.715Z,3.88
2019-02-07T14:50:33.640Z,3.76
2019-02-07T14:53:36.075Z,3.74
2019-02-07T14:56:38.243Z,3.72
2019-02-07T14:59:40.208Z,3.65
2019-02-07T15:02:42.068Z,3.63
2019-02-07T15:05:44.087Z,3.57
2019-02-07T15:08:46.197Z,3.49
2019-02-07T15:11:48.543Z,3.44
2019-02-07T15:14:50.456Z,3.30
2019-02-07T15:17:52.376Z,3.28
2019-02-07T15:20:54.348Z,3.13
2019-02-07T15:23:56.298Z,3.09
2019-02-07T15:26:58.701Z,3.10
2019-02-07T15:30:00.583Z,3.12
2019-02-07T15:33:02.828Z,3.09
2019-02-07T15:36:07.279Z,3.13
2019-02-07T15:39:11.281Z,3.20
2019-02-07T15:42:13.258Z,3.13
2019-02-07T15:45:15.262Z,3.08
2019-02-07T15:48:17.233Z,3.01
2019-02-07T15:51:20.128Z,2.94
2019-02-07T15:54:23.378Z,2.85
2019-02-07T15:57:25.612Z,2.83
2019-02-07T16:00:46.499Z,2.82
2019-02-07T16:03:53.639Z,2.86
2019-02-07T16:06:55.600Z,2.84
2019-02-07T16:09:57.600Z,2.86
2019-02-07T16:13:00.118Z,2.88
2019-02-07T16:16:02.044Z,2.83
2019-02-07T16:19:03.981Z,2.80
2019-02-07T16:22:06.255Z,2.84
2019-02-07T16:25:11.777Z,2.86
2019-02-07T16:28:13.677Z,2.89
2019-02-07T16:31:15.541Z,2.98
2019-02-07T16:34:18.864Z,2.93
2019-02-07T16:37:21.004Z,2.95
2019-02-07T16:40:23.452Z,2.99
2019-02-07T16:43:25.466Z,3.00
2019-02-07T16:46:27.427Z,2.93
2019-02-07T16:49:31.082Z,2.99
2019-02-07T16:52:32.978Z,2.97
2019-02-07T16:55:34.902Z,2.99
2019-02-07T16:58:37.067Z,3.00
2019-02-07T17:01:40.166Z,3.02
2019-02-07T17:04:42.300Z,3.01
2019-02-07T17:07:44.322Z,3.02
2019-02-07T17:10:50.142Z,3.02
2019-02-07T17:13:52.335Z,2.99
2019-02-07T17:16:57.280Z,2.95
2019-02-07T17:19:59.173Z,2.90
2019-02-07T17:23:01.675Z,2.88
2019-02-07T17:26:04.900Z,2.83
2019-02-07T17:29:06.811Z,2.82
2019-02-07T17:32:08.779Z,2.86
2019-02-07T17:35:13.844Z,2.91
2019-02-07T17:38:15.784Z,2.92
2019-02-07T17:41:18.140Z,2.89
2019-02-07T17:44:21.194Z,2.93
2019-02-07T17:47:23.185Z,2.95
2019-02-07T17:50:33.862Z,2.96
2019-02-07T17:53:35.833Z,2.95
2019-02-07T17:56:41.510Z,2.99
2019-02-07T17:59:43.664Z,3.04
2019-02-07T18:02:47.401Z,3.07
2019-02-07T18:05:49.347Z,3.09
2019-02-07T18:08:55.792Z,3.12
2019-02-07T18:11:58.200Z,3.11
2019-02-07T18:15:00.342Z,3.10
2019-02-07T18:18:02.746Z,3.13
2019-02-07T18:21:04.789Z,3.18
2019-02-07T18:24:07.882Z,3.19
2019-02-07T18:27:14.447Z,3.23
2019-02-07T18:30:18.774Z,3.20
2019-02-07T18:33:22.898Z,3.19
2019-02-07T18:36:26.235Z,3.19
2019-02-07T18:39:30.769Z,3.21
2019-02-07T18:42:31.975Z,3.27
2019-02-07T18:45:33.957Z,3.31
2019-02-07T18:48:39.226Z,3.34
2019-02-07T18:51:45.875Z,3.42
2019-02-07T18:54:48.930Z,3.44
2019-02-07T18:57:55.301Z,3.45
2019-02-07T19:00:58.807Z,3.45
2019-02-07T19:04:04.501Z,3.44
2019-02-07T19:07:06.423Z,3.43
2019-02-07T19:10:11.836Z,3.46
2019-02-07T19:13:15.315Z,3.45
2019-02-07T19:16:21.031Z,3.47
2019-02-07T19:19:22.956Z,3.49
2019-02-07T19:22:26.423Z,3.53
2019-02-07T19:25:28.663Z,3.56
2019-02-07T19:28:31.291Z,3.65
2019-02-07T19:31:35.500Z,3.63
2019-02-07T19:34:37.412Z,3.68
2019-02-07T19:37:42.194Z,3.73
2019-02-07T19:40:44.445Z,3.81
2019-02-07T19:43:49.522Z,3.79
2019-02-07T19:46:51.436Z,3.70
2019-02-07T19:49:53.367Z,3.68
2019-02-07T19:52:56.131Z,3.59
2019-02-07T19:56:02.090Z,3.59
2019-02-07T19:59:05.439Z,3.62
2019-02-07T20:02:08.337Z,3.68
2019-02-07T20:05:11.107Z,3.68
2019-02-07T20:08:14.154Z,3.72
2019-02-07T20:11:16.066Z,3.73
2019-02-07T20:14:19.439Z,3.75
2019-02-07T20:17:24.299Z,3.82
2019-02-07T20:20:26.654Z,3.86
2019-02-07T20:23:29.762Z,3.89
2019-02-07T20:26:31.703Z,3.89
2019-02-07T20:29:36.221Z,3.96
2019-02-07T20:32:38.262Z,3.97
2019-02-07T20:35:42.502Z,3.94
2019-02-07T20:38:46.024Z,3.90
2019-02-07T20:41:49.568Z,3.90
2019-02-07T20:44:51.582Z,3.85
2019-02-07T20:47:53.879Z,3.83
2019-02-07T20:50:57.685Z,3.85
2019-02-07T20:54:02.240Z,3.86
2019-02-07T20:57:07.431Z,3.87
2019-02-07T21:00:25.455Z,3.86
2019-02-07T21:03:28.983Z,3.90
2019-02-07T21:06:31.009Z,3.89
2019-02-07T21:09:34.366Z,3.92
2019-02-07T21:12:36.595Z,3.99
2019-02-07T21:15:38.494Z,4.00
2019-02-07T21:18:41.113Z,4.06
2019-02-07T21:21:43.141Z,4.09
2019-02-07T21:24:45.124Z,4.18
2019-02-07T21:27:47.071Z,4.24
2019-02-07T21:30:49.138Z,4.32
2019-02-07T21:33:52.121Z,4.33
2019-02-07T21:36:55.543Z,4.37
2019-02-07T21:39:57.709Z,4.43
2019-02-07T21:43:01.406Z,4.44
2019-02-07T21:46:05.655Z,4.44
2019-02-07T21:49:07.643Z,4.46
2019-02-07T21:52:09.550Z,4.62
2019-02-07T21:55:17.221Z,4.68
2019-02-07T21:58:19.194Z,4.69
2019-02-07T22:01:21.225Z,4.65
2019-02-07T22:04:23.085Z,4.68
2019-02-07T22:07:25.062Z,4.71
2019-02-07T22:10:26.977Z,4.74
2019-02-07T22:13:28.926Z,4.80
2019-02-07T22:16:30.773Z,4.84
2019-02-07T22:19:32.931Z,4.82
2019-02-07T22:22:34.791Z,4.77
2019-02-07T22:25:36.691Z,4.76
2019-02-07T22:28:38.587Z,4.76
2019-02-07T22:31:40.557Z,4.79
2019-02-07T22:34:42.414Z,4.86
2019-02-07T22:37:44.325Z,4.90
2019-02-07T22:40:46.269Z,4.95
2019-02-07T22:43:48.185Z,4.98
2019-02-07T22:46:50.065Z,4.99
2019-02-07T22:49:52.078Z,5.02
2019-02-07T22:52:57.138Z,5.07
2019-02-07T22:55:58.367Z,5.09
2019-02-07T22:59:00.221Z,5.14
2019-02-07T23:02:05.094Z,5.12
2019-02-07T23:05:07.014Z,5.15
2019-02-07T23:08:09.761Z,5.23
2019-02-07T23:11:11.640Z,5.19
2019-02-07T23:14:13.674Z,5.14
2019-02-07T23:17:15.590Z,5.05
2019-02-07T23:20:17.623Z,4.99
2019-02-07T23:23:19.568Z,4.94
2019-02-07T23:26:21.474Z,4.85
2019-02-07T23:29:23.356Z,4.83
2019-02-07T23:32:25.296Z,4.80
2019-02-07T23:35:27.536Z,4.77
2019-02-07T23:38:29.451Z,4.72
2019-02-07T23:41:31.508Z,4.62
2019-02-07T23:44:33.744Z,4.58
2019-02-07T23:47:35.705Z,4.57
2019-02-07T23:50:37.578Z,4.50
2019-02-07T23:53:39.669Z,4.48
2019-02-07T23:56:41.573Z,4.52
2019-02-07T23:59:43.668Z,4.55
